Perlee, Iowa
Current Conditions -  °F | °C
As of 3:55 AM on Saturday 01 Nov 2014 (Local Time) from KFFL Reporting Station
Clear Clear  
Wind Chill: 15°   Ceiling: Unl
Heat Index: 23°   Visibility: NA
Dew Point: 18°   Wind: 7mph
Humidity: 80%   Direction: 330°NNW
Pressure: 30.47"   Gusts: NA
Location:  40.9879°N, 91.8924°W
Report Text: KFFL 010855Z AUTO 33006KT CLR M05/M08 A3047 RMK AO2
Loading
Personal Weather Stations






























Interactive Weather Map
Tropical Storm Tracking
New forecast layout! Learn more

10-Day Weather Forecast

Advertisements
Track Severe Weather on mobile